Huvudsida
METAR-TAF:

METAR-TAF

Flygplatser :

Brønnøysunds flygplats. Brønnøy

Brønnøysund, Norge

latitud: 65-28N, longitud: 012-13E, höjd: 0 m

Aktuellt väderrapport

Denna rapport gjordes för 31 minuter sedan, klockan 13:20 UTC
Vind 13 kt från nord, varierande mellan nord/nordväst och nord/nordost
Temperatur 4°C
Fuktighet 75%
Tryck 1017 hPa
Sikt 10 km eller mer
Få moln på en höjd av 2900 ft
Spridda moln på en höjd av 5400 ft

METAR: ENBN 091320Z 36013KT 330V030 9999 FEW029 SCT054 04/M00 Q1017

Tid: 15:51 (13:51 UTC)

Väderprognos

Denna rapport gjordes för 2 timmar och 51 minuter sedan, klockan 11:00 UTC
Prognos gäller från 09 kl. 12 UTC till 09 kl. 21 UTC
Vind 9 kt från nord
Sikt 10 km eller mer
Få moln på en höjd av 1500 ft
Spridda moln på en höjd av 4000 ft
Temporärt
från 09 kl. 20 UTC till 09 kl. 21 UTC
Sikt: 3000 m
Brutna moln på en höjd av 800 ft, Cumulonimbus.
snöbyar, regn

TAF: ENBN 091100Z 0912/0921 36009KT 9999 FEW015 SCT040 TEMPO 0920/0921 3000 SHSNRA BKN008CB

Aktuella väderrapporter och prognoser från 4000 flygplatser (METAR- och TAF-rapporter).

De tillgängliga stationerna syns som gula och röda prickar på kartan.

För musen över prickarna för att se namnen på stationerna.

Klicka sedan för att få väderrapporter och prognoser.

För att ändra kartan: Klicka på de gröna knapparna med ett svart kors på för att zooma in; den gröna knappen med ett streck på för att zooma ut; eller på de gröna pilarna för angränsande kartor.


METAR-TAF: